Terminal Aerodrome Forecast
Issued by NWS Jackson, MS

Home | Current Version | Previous Version | Text Only | Print | Product List | Glossary On
Versions: 1 2 3 4 5 6 7 8 9 10 11 12 13 14 15
000
FTUS44 KMEG 290524
TAFTUP
TAF
KTUP 290524Z 2906/3006 VRB03KT P6SM SKC
     FM291200 VRB03KT P6SM OVC035
     FM291500 16010G18KT P6SM OVC025
     FM291900 18012G20KT P6SM SCT035
     FM300300 20007KT P6SM VCSH OVC040
      TEMPO 3003/3006 5SM -SHRA BR OVC025=

USA.gov is the U.S. government's official web portal to all federal, state and local government web resources and services.